Time;durP1;ratioP1;P1;durP2;ratioP2;P2;SDS_P1;SDS_P2;PMS_P1;PMS_P2;Temp;Humidity;BMP_temperature;BMP_pressure;BME280_temperature;BME280_humidity;BME280_pressure;Samples;Min_cycle;Max_cycle;Signal;HPM_P1;HPM_P2
2023/01/01 00:01:19;;;;;;;13.27;5.40;;;16.00;99.90;;;;;;5040648;28;20169;-80
2023/01/01 00:03:49;;;;;;;13.87;5.63;;;16.00;99.90;;;;;;5036838;28;20518;-80
2023/01/01 00:06:14;;;;;;;16.03;9.37;;;15.90;99.90;;;;;;5039081;28;20665;-80
2023/01/01 00:08:40;;;;;;;18.53;10.30;;;15.90;99.90;;;;;;5039201;28;20279;-80
2023/01/01 00:11:07;;;;;;;17.17;7.07;;;16.00;99.90;;;;;;5038200;28;20196;-80
2023/01/01 00:13:36;;;;;;;10.13;4.10;;;16.00;99.90;;;;;;5035937;28;20176;-81
2023/01/01 00:16:10;;;;;;;12.57;4.53;;;15.90;99.90;;;;;;5039576;28;20226;-81
2023/01/01 00:18:36;;;;;;;9.37;3.27;;;15.90;99.90;;;;;;5039468;28;20214;-81
2023/01/01 00:21:06;;;;;;;9.57;4.93;;;15.80;99.90;;;;;;5037767;28;20177;-81
2023/01/01 00:23:33;;;;;;;11.17;4.20;;;15.80;99.90;;;;;;5037896;28;20184;-81
2023/01/01 00:25:59;;;;;;;12.60;3.80;;;15.80;99.90;;;;;;5037258;28;20726;-80
2023/01/01 00:28:25;;;;;;;11.43;4.70;;;15.80;99.90;;;;;;5039716;28;20193;-81
2023/01/01 00:30:50;;;;;;;11.17;4.40;;;15.70;99.90;;;;;;5038129;28;20203;-81
2023/01/01 00:33:16;;;;;;;9.37;3.70;;;15.70;99.90;;;;;;5040252;28;20265;-81
2023/01/01 00:35:42;;;;;;;12.23;4.70;;;15.60;99.90;;;;;;5038637;28;20203;-81
2023/01/01 00:38:07;;;;;;;15.43;4.27;;;15.60;99.90;;;;;;5039689;28;20192;-81
2023/01/01 00:40:33;;;;;;;13.50;4.63;;;15.60;99.90;;;;;;5039750;28;20179;-81
2023/01/01 00:42:58;;;;;;;73.30;37.77;;;15.70;99.90;;;;;;5039263;28;20255;-81
2023/01/01 00:45:24;;;;;;;16.70;8.27;;;15.70;99.90;;;;;;5037819;28;20175;-81
2023/01/01 00:47:51;;;;;;;10.67;4.70;;;15.70;99.90;;;;;;5055591;28;20286;-81
2023/01/01 00:50:18;;;;;;;12.53;6.07;;;15.70;99.90;;;;;;5037956;28;20180;-81
2023/01/01 00:52:44;;;;;;;14.40;7.13;;;15.60;99.90;;;;;;5037701;28;20291;-81
2023/01/01 00:55:10;;;;;;;12.43;8.13;;;15.50;99.90;;;;;;5039765;28;20204;-81
2023/01/01 00:57:36;;;;;;;20.00;8.77;;;15.50;99.90;;;;;;5039295;28;20193;-84
2023/01/01 01:00:03;;;;;;;15.07;8.77;;;15.40;99.90;;;;;;5040586;28;20176;-82
2023/01/01 01:02:28;;;;;;;17.57;8.63;;;15.40;99.90;;;;;;5040244;28;20573;-82
2023/01/01 01:04:54;;;;;;;14.83;7.37;;;15.30;99.90;;;;;;5038887;28;20180;-81
2023/01/01 01:07:19;;;;;;;14.13;6.87;;;15.20;99.90;;;;;;5055423;28;20204;-81
2023/01/01 01:09:45;;;;;;;12.23;5.10;;;15.20;99.90;;;;;;5054252;28;20180;-82
2023/01/01 01:12:11;;;;;;;9.80;4.03;;;15.30;99.90;;;;;;5038666;28;20210;-81
2023/01/01 01:14:36;;;;;;;7.13;3.93;;;15.30;99.90;;;;;;5038816;28;20645;-81
2023/01/01 01:17:02;;;;;;;11.10;5.67;;;15.30;99.90;;;;;;5054833;28;20200;-82
2023/01/01 01:19:28;;;;;;;13.63;6.50;;;15.30;99.90;;;;;;5040260;28;20240;-82
2023/01/01 01:21:53;;;;;;;11.63;5.97;;;15.20;99.90;;;;;;5038307;28;20172;-82
2023/01/01 01:24:19;;;;;;;8.47;4.50;;;15.20;99.90;;;;;;5054139;28;20180;-82
2023/01/01 01:26:44;;;;;;;12.63;5.43;;;15.10;99.90;;;;;;5038149;28;20187;-82
2023/01/01 01:29:10;;;;;;;12.63;4.80;;;15.10;99.90;;;;;;5040341;28;20263;-81
2023/01/01 01:31:35;;;;;;;9.53;3.60;;;15.10;99.90;;;;;;5037590;28;20746;-82
2023/01/01 01:34:01;;;;;;;11.27;3.40;;;15.20;99.90;;;;;;5020834;28;20571;-82
2023/01/01 01:36:27;;;;;;;9.87;2.83;;;15.00;99.90;;;;;;5039109;28;20186;-82
2023/01/01 01:38:54;;;;;;;6.63;2.50;;;15.00;99.90;;;;;;5039191;28;20267;-81
2023/01/01 01:41:22;;;;;;;8.43;3.03;;;15.00;99.90;;;;;;5038184;28;20184;-81
2023/01/01 01:43:55;;;;;;;5.13;2.70;;;15.00;99.90;;;;;;5037451;28;20192;-82
2023/01/01 01:46:37;;;;;;;9.50;2.80;;;15.00;99.90;;;;;;5038219;28;20182;-81
2023/01/01 01:49:15;;;;;;;6.70;2.23;;;15.10;99.90;;;;;;5035298;28;20172;-82
2023/01/01 01:51:41;;;;;;;7.70;2.40;;;15.00;99.90;;;;;;5035431;28;20204;-81
2023/01/01 01:54:13;;;;;;;5.27;2.10;;;15.00;99.90;;;;;;5037800;28;20187;-81
2023/01/01 01:56:50;;;;;;;4.27;1.53;;;15.00;99.90;;;;;;5037102;28;20664;-80
2023/01/01 01:59:18;;;;;;;10.70;1.87;;;14.90;99.90;;;;;;5037182;28;20255;-83
2023/01/01 02:01:44;;;;;;;3.57;2.00;;;15.00;99.90;;;;;;5037774;28;20221;-82
2023/01/01 02:04:10;;;;;;;6.07;1.70;;;15.00;99.90;;;;;;5037945;28;20268;-82
2023/01/01 02:06:38;;;;;;;5.23;1.70;;;15.00;99.90;;;;;;5036778;28;20229;-81
2023/01/01 02:09:06;;;;;;;3.80;1.67;;;15.00;99.90;;;;;;5035996;28;20187;-83
2023/01/01 02:11:31;;;;;;;3.40;1.57;;;15.00;99.90;;;;;;5036054;28;20219;-81
2023/01/01 02:13:59;;;;;;;3.80;1.40;;;15.00;99.90;;;;;;5037795;28;20180;-82
2023/01/01 02:16:32;;;;;;;3.53;1.70;;;14.90;99.90;;;;;;5036803;28;20218;-82
2023/01/01 02:19:17;;;;;;;8.77;1.93;;;14.90;99.90;;;;;;5036517;28;20218;-81
2023/01/01 02:22:01;;;;;;;8.97;1.60;;;14.90;99.90;;;;;;5037663;28;20548;-82
2023/01/01 02:24:36;;;;;;;3.53;1.40;;;14.80;99.90;;;;;;5037229;28;20168;-82
2023/01/01 02:27:29;;;;;;;2.97;1.40;;;14.80;99.90;;;;;;5034526;28;20567;-81
2023/01/01 02:30:00;;;;;;;3.77;1.20;;;14.80;99.90;;;;;;5035039;28;20177;-81
2023/01/01 02:32:53;;;;;;;5.10;1.60;;;14.70;99.90;;;;;;5036361;28;20199;-82
2023/01/01 02:35:34;;;;;;;3.43;1.20;;;14.80;99.90;;;;;;5034906;28;20656;-81
2023/01/01 02:38:13;;;;;;;9.77;1.50;;;14.70;99.90;;;;;;5018100;28;20200;-81
2023/01/01 02:40:51;;;;;;;2.83;1.00;;;14.80;99.90;;;;;;5036326;28;20278;-81
2023/01/01 02:43:17;;;;;;;5.77;1.57;;;14.80;99.90;;;;;;5034554;28;20203;-81
2023/01/01 02:45:43;;;;;;;2.13;1.20;;;14.80;99.90;;;;;;5036084;28;20180;-82
2023/01/01 02:48:47;;;;;;;3.50;1.37;;;14.70;99.90;;;;;;5035467;28;20200;-81
2023/01/01 02:51:13;;;;;;;5.63;1.20;;;14.70;99.90;;;;;;5038060;28;20242;-82
2023/01/01 02:54:01;;;;;;;7.77;1.37;;;14.70;99.90;;;;;;5039815;28;20168;-81
2023/01/01 02:56:32;;;;;;;2.57;1.23;;;14.70;99.90;;;;;;5038258;28;20172;-81
2023/01/01 03:02:22;;;;;;;6.13;1.33;;;14.60;99.90;;;;;;5040790;28;20740;-79
2023/01/01 03:05:17;;;;;;;6.63;1.20;;;14.60;99.90;;;;;;5041362;28;20172;-79
2023/01/01 03:07:54;;;;;;;5.80;1.50;;;14.60;99.90;;;;;;5041604;28;20300;-79
2023/01/01 03:10:34;;;;;;;5.00;1.20;;;14.50;99.90;;;;;;5041348;28;20191;-82
2023/01/01 03:13:01;;;;;;;2.53;1.10;;;14.50;99.90;;;;;;5039957;28;20184;-80
2023/01/01 03:15:42;;;;;;;2.87;1.30;;;14.50;99.90;;;;;;5024964;28;20183;-79
2023/01/01 03:18:17;;;;;;;5.17;1.73;;;14.50;99.90;;;;;;5041494;28;20747;-79
2023/01/01 03:20:47;;;;;;;4.53;1.37;;;14.50;99.90;;;;;;5045937;28;20218;-79
2023/01/01 03:23:18;;;;;;;6.43;1.37;;;14.50;99.90;;;;;;5050791;28;20167;-79
2023/01/01 03:25:52;;;;;;;5.87;1.20;;;14.50;99.90;;;;;;5050720;28;20165;-80
2023/01/01 03:28:27;;;;;;;4.90;1.30;;;14.50;99.90;;;;;;5050806;28;20231;-80
2023/01/01 03:30:53;;;;;;;2.40;1.27;;;14.50;99.90;;;;;;5050773;28;20290;-80
2023/01/01 03:33:32;;;;;;;2.57;1.20;;;14.50;99.90;;;;;;5049941;28;20180;-80
2023/01/01 03:36:21;;;;;;;2.77;1.10;;;14.40;99.90;;;;;;5041545;28;20188;-80
2023/01/01 03:38:54;;;;;;;3.57;1.50;;;14.50;99.90;;;;;;5039354;28;20192;-80
2023/01/01 03:41:46;;;;;;;5.57;1.40;;;14.40;99.90;;;;;;5040693;28;20169;-80
2023/01/01 03:44:37;;;;;;;6.23;1.83;;;14.50;99.90;;;;;;5031441;28;20188;-80
2023/01/01 03:47:04;;;;;;;4.03;1.30;;;14.50;99.90;;;;;;5040482;28;20715;-80
2023/01/01 03:49:30;;;;;;;5.93;1.23;;;14.50;99.90;;;;;;5040259;28;20203;-80
2023/01/01 03:52:02;;;;;;;4.97;1.83;;;14.40;99.90;;;;;;5038341;28;20211;-80
2023/01/01 03:54:32;;;;;;;2.03;1.07;;;14.50;99.90;;;;;;5038702;28;20176;-80
2023/01/01 03:57:21;;;;;;;4.50;1.30;;;14.50;99.90;;;;;;5037852;28;20200;-80
2023/01/01 04:00:07;;;;;;;3.53;1.20;;;14.40;99.90;;;;;;5038915;28;20263;-80
2023/01/01 04:02:38;;;;;;;4.93;1.50;;;14.60;99.90;;;;;;5039732;28;20163;-80
2023/01/01 04:05:06;;;;;;;2.30;1.20;;;14.60;99.90;;;;;;5039616;28;20669;-80
2023/01/01 04:07:32;;;;;;;7.37;1.47;;;14.60;99.90;;;;;;5039344;28;20201;-80
2023/01/01 04:10:00;;;;;;;5.90;1.27;;;14.50;99.90;;;;;;5038277;28;20188;-80
2023/01/01 04:12:28;;;;;;;4.77;1.23;;;14.60;99.90;;;;;;5038049;28;20200;-79
2023/01/01 04:14:54;;;;;;;3.83;1.20;;;14.60;99.90;;;;;;5038077;28;20188;-80
2023/01/01 04:17:19;;;;;;;3.30;1.33;;;14.60;99.90;;;;;;5039399;28;20211;-80
2023/01/01 04:19:45;;;;;;;6.77;1.47;;;14.60;99.90;;;;;;5039607;28;20180;-79
2023/01/01 04:22:10;;;;;;;3.37;1.10;;;14.50;99.90;;;;;;5038197;28;20559;-80
2023/01/01 04:24:36;;;;;;;4.60;1.10;;;14.50;99.90;;;;;;5037923;28;20180;-80
2023/01/01 04:27:02;;;;;;;8.67;1.30;;;14.50;99.90;;;;;;5039231;28;20196;-80
2023/01/01 04:29:27;;;;;;;5.10;1.30;;;14.30;99.90;;;;;;5037491;28;20382;-79
2023/01/01 04:31:53;;;;;;;3.73;1.43;;;14.50;99.90;;;;;;5038911;28;20285;-80
2023/01/01 04:34:18;;;;;;;4.47;1.73;;;14.50;99.90;;;;;;5055110;28;20236;-80
2023/01/01 04:36:44;;;;;;;2.73;1.40;;;14.50;99.90;;;;;;5038933;28;20185;-80
2023/01/01 04:39:09;;;;;;;4.43;1.10;;;14.50;99.90;;;;;;5021354;28;20184;-80
2023/01/01 04:41:35;;;;;;;2.97;1.03;;;14.50;99.90;;;;;;5037464;28;20180;-80
2023/01/01 04:44:01;;;;;;;7.00;1.40;;;14.50;99.90;;;;;;5037741;28;20176;-80
2023/01/01 04:46:26;;;;;;;5.17;1.27;;;14.50;99.90;;;;;;5021541;28;20180;-80
2023/01/01 04:48:52;;;;;;;2.97;1.23;;;14.50;99.90;;;;;;5038675;28;20235;-79
2023/01/01 04:51:19;;;;;;;6.33;1.30;;;14.50;99.90;;;;;;5039135;28;20200;-80
2023/01/01 04:53:45;;;;;;;2.67;1.10;;;14.50;99.90;;;;;;5036866;28;20180;-79
2023/01/01 04:56:14;;;;;;;5.97;1.33;;;14.50;99.90;;;;;;5038661;28;20542;-80
2023/01/01 04:58:41;;;;;;;4.63;1.47;;;14.50;99.90;;;;;;5037624;28;20200;-80
2023/01/01 05:01:12;;;;;;;6.00;1.30;;;14.50;99.90;;;;;;5039206;28;20177;-80
2023/01/01 05:03:38;;;;;;;7.63;1.60;;;14.50;99.90;;;;;;5037335;28;20183;-80
2023/01/01 05:06:08;;;;;;;7.53;1.20;;;14.50;99.90;;;;;;5036866;28;20598;-80
2023/01/01 05:08:36;;;;;;;2.33;1.10;;;14.50;99.90;;;;;;5037287;28;20591;-80
2023/01/01 05:11:07;;;;;;;3.27;1.40;;;14.40;99.90;;;;;;5036823;28;20203;-80
2023/01/01 05:13:34;;;;;;;4.03;1.20;;;14.40;99.90;;;;;;5038407;28;20653;-80
2023/01/01 05:16:08;;;;;;;3.67;1.30;;;14.40;99.90;;;;;;5038517;28;20175;-81
2023/01/01 05:18:35;;;;;;;3.90;1.33;;;14.40;99.90;;;;;;5070934;22;20237;-78
2023/01/01 05:21:05;;;;;;;5.50;1.70;;;14.40;99.90;;;;;;5076649;28;20167;-78
2023/01/01 05:23:31;;;;;;;3.40;1.40;;;14.40;99.90;;;;;;5073486;28;20228;-78
2023/01/01 05:25:56;;;;;;;2.27;1.10;;;14.30;99.90;;;;;;5073735;28;20178;-78
2023/01/01 05:28:23;;;;;;;7.03;1.83;;;14.30;99.90;;;;;;5073074;28;20683;-79
2023/01/01 05:30:52;;;;;;;3.67;1.53;;;14.30;99.90;;;;;;5075220;28;20199;-78
2023/01/01 05:33:18;;;;;;;7.17;2.00;;;14.30;99.90;;;;;;5075794;28;20175;-78
2023/01/01 05:35:44;;;;;;;9.47;1.97;;;14.30;99.90;;;;;;5075958;28;20213;-78
2023/01/01 05:38:09;;;;;;;6.20;1.60;;;14.30;99.90;;;;;;5073845;28;20171;-79
2023/01/01 05:40:38;;;;;;;5.23;1.60;;;14.30;99.90;;;;;;5073842;28;20167;-77
2023/01/01 05:43:05;;;;;;;2.83;1.40;;;14.30;99.90;;;;;;5075215;28;20167;-78
2023/01/01 05:45:30;;;;;;;5.73;1.90;;;14.40;99.90;;;;;;5073743;28;20179;-78
2023/01/01 05:47:56;;;;;;;3.43;1.90;;;14.40;99.90;;;;;;5073443;28;20186;-79
2023/01/01 05:50:21;;;;;;;2.70;1.40;;;14.40;99.90;;;;;;5075455;28;20550;-78
2023/01/01 05:52:47;;;;;;;4.20;1.67;;;14.30;99.90;;;;;;5075266;28;20698;-78
2023/01/01 05:55:12;;;;;;;6.77;1.70;;;14.40;99.90;;;;;;5075456;28;20178;-78
2023/01/01 05:57:38;;;;;;;4.37;1.40;;;14.40;99.90;;;;;;5075632;28;20175;-78
2023/01/01 06:00:04;;;;;;;4.73;1.30;;;14.30;99.90;;;;;;5075039;28;20187;-78
2023/01/01 06:02:30;;;;;;;3.80;1.20;;;14.30;99.90;;;;;;5075584;28;20175;-78
2023/01/01 06:04:55;;;;;;;8.67;1.40;;;14.30;99.90;;;;;;5074028;28;20566;-78
2023/01/01 06:07:21;;;;;;;3.00;1.30;;;14.30;99.90;;;;;;5073924;28;20178;-78
2023/01/01 06:09:46;;;;;;;4.50;1.33;;;14.20;99.90;;;;;;5073118;28;20231;-78
2023/01/01 06:12:12;;;;;;;3.83;1.27;;;14.20;99.90;;;;;;5072839;28;20199;-78
2023/01/01 06:14:37;;;;;;;2.07;1.20;;;14.20;99.90;;;;;;5074229;28;20524;-78
2023/01/01 06:17:03;;;;;;;5.37;1.37;;;14.20;99.90;;;;;;5074427;28;20652;-78
2023/01/01 06:19:28;;;;;;;4.03;1.13;;;14.20;99.90;;;;;;5074239;28;20760;-78
2023/01/01 06:21:54;;;;;;;7.43;1.50;;;14.20;99.90;;;;;;5074684;28;20175;-78
2023/01/01 06:24:19;;;;;;;4.67;1.53;;;14.20;99.90;;;;;;5077894;28;20655;-78
2023/01/01 06:26:45;;;;;;;1.83;0.80;;;14.20;99.90;;;;;;5078791;28;20225;-78
2023/01/01 06:29:10;;;;;;;4.27;1.77;;;14.20;99.90;;;;;;5077796;28;20229;-78
2023/01/01 06:31:36;;;;;;;4.07;1.30;;;14.20;99.90;;;;;;5076952;28;20285;-78
2023/01/01 06:34:01;;;;;;;3.00;1.30;;;14.10;99.90;;;;;;5077038;28;20167;-78
2023/01/01 06:36:27;;;;;;;3.63;1.53;;;14.20;99.90;;;;;;5078136;28;20228;-78
2023/01/01 06:38:54;;;;;;;5.30;1.30;;;14.20;99.90;;;;;;5076467;28;20195;-78
2023/01/01 06:41:25;;;;;;;3.60;1.57;;;14.20;99.90;;;;;;5078047;28;20171;-78
2023/01/01 06:43:50;;;;;;;3.23;1.30;;;14.10;99.90;;;;;;5077713;28;20166;-78
2023/01/01 06:46:22;;;;;;;3.50;1.20;;;14.20;99.90;;;;;;5075537;28;20572;-77
2023/01/01 06:48:49;;;;;;;4.13;1.40;;;14.20;92.60;;;;;;5075852;28;20290;-77
2023/01/01 06:51:20;;;;;;;2.57;1.23;;;14.20;85.90;;;;;;5075701;28;20233;-77
2023/01/01 06:53:47;;;;;;;8.47;1.27;;;14.20;40.40;;;;;;5074422;28;20201;-77
2023/01/01 06:56:13;;;;;;;4.50;1.30;;;14.10;1.00;;;;;;5075716;28;20162;-77
2023/01/01 06:58:39;;;;;;;3.57;1.73;;;14.20;47.20;;;;;;5075565;28;20703;-77
2023/01/01 07:01:08;;;;;;;2.47;1.40;;;14.10;99.90;;;;;;5075778;28;20186;-77
2023/01/01 07:03:33;;;;;;;6.53;1.20;;;14.10;99.90;;;;;;5075881;28;20214;-77
2023/01/01 07:05:59;;;;;;;4.60;1.30;;;14.10;99.90;;;;;;5075545;28;20205;-77
2023/01/01 07:08:24;;;;;;;4.17;1.37;;;14.10;99.90;;;;;;5075914;28;20230;-77
2023/01/01 07:10:50;;;;;;;7.63;1.57;;;14.10;99.90;;;;;;5074086;28;20170;-77
2023/01/01 07:13:15;;;;;;;5.93;1.20;;;14.20;99.90;;;;;;5075456;28;20171;-77
2023/01/01 07:15:43;;;;;;;6.63;1.50;;;14.20;37.90;;;;;;5075314;28;20175;-77
2023/01/01 07:18:08;;;;;;;8.77;1.83;;;14.10;48.50;;;;;;5073819;28;20266;-77
2023/01/01 07:20:34;;;;;;;3.17;1.60;;;14.20;1.00;;;;;;5075646;28;20187;-77
2023/01/01 07:23:01;;;;;;;4.83;1.67;;;14.20;99.90;;;;;;5075561;28;20250;-77
2023/01/01 07:25:27;;;;;;;2.33;1.33;;;14.20;99.90;;;;;;5075998;28;20171;-77
2023/01/01 07:27:52;;;;;;;4.23;1.50;;;14.30;99.90;;;;;;5075383;28;20170;-77
2023/01/01 07:30:18;;;;;;;3.33;1.30;;;14.20;99.90;;;;;;5073703;28;20612;-77
2023/01/01 07:32:43;;;;;;;4.60;1.37;;;14.20;99.90;;;;;;5073664;28;20221;-77
2023/01/01 07:35:09;;;;;;;7.00;1.77;;;14.20;99.90;;;;;;5074916;28;20178;-77
2023/01/01 07:37:35;;;;;;;2.87;1.10;;;14.20;99.90;;;;;;5073722;28;20168;-77
2023/01/01 07:40:00;;;;;;;4.40;1.63;;;14.10;99.90;;;;;;5074914;28;20197;-77
2023/01/01 07:42:26;;;;;;;5.20;1.43;;;14.10;99.90;;;;;;5074891;28;20182;-77
2023/01/01 07:44:51;;;;;;;4.90;1.27;;;14.00;99.90;;;;;;5073659;28;20237;-77
2023/01/01 07:47:22;;;;;;;3.07;1.43;;;13.90;99.90;;;;;;5074856;28;20586;-77
2023/01/01 07:49:49;;;;;;;6.97;1.80;;;13.80;99.90;;;;;;5073402;28;20602;-77
2023/01/01 07:52:14;;;;;;;4.20;1.60;;;13.80;99.90;;;;;;5074783;28;20248;-77
2023/01/01 07:54:40;;;;;;;9.97;1.53;;;13.70;99.90;;;;;;5074036;28;20171;-77
2023/01/01 07:57:05;;;;;;;3.60;1.13;;;13.70;99.90;;;;;;5075235;28;20246;-77
2023/01/01 07:59:31;;;;;;;9.40;1.77;;;13.70;99.90;;;;;;5074708;28;20229;-77
2023/01/01 08:01:57;;;;;;;4.73;1.67;;;13.60;99.90;;;;;;5074508;28;20170;-77
2023/01/01 08:04:22;;;;;;;5.47;1.70;;;13.60;99.90;;;;;;5074433;28;20351;-77
2023/01/01 08:06:48;;;;;;;3.03;1.47;;;13.70;99.90;;;;;;5074416;28;20179;-77
2023/01/01 08:09:13;;;;;;;8.23;1.67;;;13.60;99.90;;;;;;5073046;28;20205;-77
2023/01/01 08:11:39;;;;;;;7.73;1.50;;;13.60;99.90;;;;;;5074161;28;20593;-77
2023/01/01 08:14:04;;;;;;;5.93;1.77;;;13.60;99.90;;;;;;5072895;28;20167;-77
2023/01/01 08:16:30;;;;;;;2.40;1.53;;;13.60;99.90;;;;;;5072875;28;20179;-77
2023/01/01 08:18:56;;;;;;;7.63;1.30;;;13.60;99.90;;;;;;5074099;28;20210;-77
2023/01/01 08:21:21;;;;;;;4.80;1.40;;;13.60;99.90;;;;;;5074014;28;20659;-77
2023/01/01 08:23:47;;;;;;;6.40;1.60;;;13.60;99.90;;;;;;5072769;28;20197;-77
2023/01/01 08:26:17;;;;;;;6.90;1.47;;;13.70;99.90;;;;;;5074239;28;20291;-77
2023/01/01 08:28:43;;;;;;;7.33;1.87;;;13.60;99.90;;;;;;5073871;28;20324;-77
2023/01/01 08:31:09;;;;;;;7.80;1.70;;;13.80;99.90;;;;;;5074084;28;20285;-77
2023/01/01 08:33:34;;;;;;;6.27;1.50;;;13.70;99.90;;;;;;5074268;28;20162;-77
2023/01/01 08:36:01;;;;;;;7.30;1.57;;;13.60;99.90;;;;;;5073837;28;20169;-77
2023/01/01 08:38:26;;;;;;;5.10;1.70;;;13.60;99.90;;;;;;5074151;28;20218;-77
2023/01/01 08:40:52;;;;;;;7.77;1.80;;;13.60;99.90;;;;;;5073944;28;20170;-77
2023/01/01 08:43:18;;;;;;;7.10;1.43;;;13.60;99.90;;;;;;5074192;28;20524;-78
2023/01/01 08:45:44;;;;;;;6.10;1.37;;;13.60;99.90;;;;;;5072863;28;20253;-77
2023/01/01 08:48:10;;;;;;;7.60;1.80;;;13.60;99.90;;;;;;5072460;28;20182;-77
2023/01/01 08:50:36;;;;;;;3.67;1.70;;;13.60;99.90;;;;;;5074063;28;20171;-77
2023/01/01 08:53:01;;;;;;;6.17;1.53;;;13.60;99.90;;;;;;5072080;28;20261;-77
2023/01/01 08:55:28;;;;;;;6.13;1.83;;;13.60;99.90;;;;;;5072081;28;20170;-76
2023/01/01 08:57:53;;;;;;;9.10;1.90;;;13.60;99.90;;;;;;5073982;28;20698;-77
2023/01/01 09:00:20;;;;;;;4.27;1.60;;;13.60;99.90;;;;;;5073394;28;20223;-78
2023/01/01 09:02:46;;;;;;;6.47;1.70;;;13.60;99.90;;;;;;5073554;28;20747;-79
2023/01/01 09:05:11;;;;;;;5.73;1.90;;;13.60;99.90;;;;;;5074827;28;20181;-80
2023/01/01 09:07:37;;;;;;;10.70;2.63;;;13.60;99.90;;;;;;5074876;28;20258;-79
2023/01/01 09:10:03;;;;;;;4.60;1.30;;;13.60;99.90;;;;;;5075284;28;20195;-79
2023/01/01 09:12:29;;;;;;;6.43;2.00;;;13.60;99.90;;;;;;5074812;28;20203;-79
2023/01/01 09:14:58;;;;;;;4.33;1.60;;;13.60;99.90;;;;;;5074688;28;20245;-77
2023/01/01 09:17:23;;;;;;;8.17;1.50;;;13.80;99.90;;;;;;5073693;28;20179;-78
2023/01/01 09:19:49;;;;;;;2.27;1.30;;;13.60;99.90;;;;;;5071999;28;20217;-78
2023/01/01 09:22:14;;;;;;;5.37;1.70;;;13.60;99.90;;;;;;5072316;28;20179;-78
2023/01/01 09:24:40;;;;;;;3.37;1.47;;;13.70;99.90;;;;;;5075683;28;20179;-81
2023/01/01 09:27:05;;;;;;;7.70;1.73;;;13.70;99.90;;;;;;5075587;28;20178;-80
2023/01/01 09:29:31;;;;;;;6.43;1.53;;;13.70;99.90;;;;;;5073419;28;20281;-80
2023/01/01 09:31:56;;;;;;;2.60;1.33;;;13.80;99.90;;;;;;5073614;28;20203;-80
2023/01/01 09:34:22;;;;;;;4.80;1.47;;;13.70;99.90;;;;;;5076288;28;20543;-80
2023/01/01 09:36:47;;;;;;;5.07;1.80;;;13.80;99.90;;;;;;5076146;28;20186;-80
2023/01/01 09:39:14;;;;;;;3.37;1.47;;;13.80;99.90;;;;;;5076463;28;20244;-79
2023/01/01 09:42:33;;;;;;;7.17;2.10;;;13.80;99.90;;;;;;5073825;28;20189;-78
2023/01/01 09:45:07;;;;;;;3.77;1.43;;;13.80;99.90;;;;;;5016255;28;20189;-78
2023/01/01 09:47:45;;;;;;;5.10;1.47;;;13.80;99.90;;;;;;4999148;28;20221;-80
2023/01/01 09:50:22;;;;;;;3.93;2.07;;;13.80;99.90;;;;;;5052143;28;20305;-80
2023/01/01 09:52:59;;;;;;;3.93;1.77;;;13.80;99.90;;;;;;5076556;28;20221;-83
2023/01/01 09:55:33;;;;;;;4.33;1.67;;;13.80;99.90;;;;;;5076696;28;20155;-79
2023/01/01 09:57:58;;;;;;;4.63;1.50;;;13.80;99.90;;;;;;5079055;28;20234;-80
2023/01/01 10:00:25;;;;;;;5.50;1.90;;;13.80;99.90;;;;;;5078404;28;20171;-81
2023/01/01 10:03:13;;;;;;;6.30;1.73;;;13.80;99.90;;;;;;5078172;28;20178;-81
2023/01/01 10:05:41;;;;;;;6.77;1.90;;;13.80;99.90;;;;;;5079077;28;20170;-80
2023/01/01 10:08:39;;;;;;;7.90;1.50;;;13.80;99.90;;;;;;5078859;28;20178;-80
2023/01/01 10:11:12;;;;;;;4.60;1.70;;;13.80;99.90;;;;;;5081345;28;20212;-82
2023/01/01 10:13:41;;;;;;;4.20;1.67;;;13.80;99.90;;;;;;5082156;28;20163;-82
2023/01/01 10:16:19;;;;;;;5.73;1.57;;;13.80;99.90;;;;;;5080200;28;20178;-82
2023/01/01 10:18:50;;;;;;;5.07;1.73;;;13.80;99.90;;;;;;5080863;28;20202;-82
2023/01/01 10:21:25;;;;;;;5.17;1.50;;;13.80;99.90;;;;;;5079102;28;20639;-82
2023/01/01 10:23:58;;;;;;;4.90;1.83;;;13.80;99.90;;;;;;5078976;28;20166;-82
2023/01/01 10:26:28;;;;;;;6.60;1.77;;;13.80;99.90;;;;;;5080552;28;20251;-82
2023/01/01 10:29:03;;;;;;;4.10;1.80;;;13.90;99.90;;;;;;5079620;28;20737;-81
2023/01/01 10:31:43;;;;;;;4.37;1.33;;;13.90;99.90;;;;;;5078553;28;20191;-81
2023/01/01 10:34:18;;;;;;;4.77;1.60;;;14.00;99.90;;;;;;5078217;28;20161;-80
2023/01/01 10:36:44;;;;;;;3.93;1.43;;;13.90;99.90;;;;;;5079479;28;20177;-80
2023/01/01 10:39:14;;;;;;;3.60;1.37;;;13.90;99.90;;;;;;5077300;28;20199;-80
2023/01/01 10:41:40;;;;;;;8.87;1.50;;;13.90;99.90;;;;;;5079559;28;20540;-81
2023/01/01 10:44:06;;;;;;;5.03;1.57;;;13.90;99.90;;;;;;5080216;28;20186;-82
2023/01/01 10:46:35;;;;;;;6.20;1.93;;;13.90;99.90;;;;;;5080871;28;20182;-81
2023/01/01 10:49:13;;;;;;;6.30;1.33;;;13.90;81.30;;;;;;5080612;28;20554;-83
2023/01/01 10:51:45;;;;;;;7.97;2.13;;;14.00;1.00;;;;;;5078633;28;20206;-81
2023/01/01 10:54:32;;;;;;;6.33;1.50;;;14.00;1.00;;;;;;5078200;28;20221;-80
2023/01/01 10:56:58;;;;;;;4.53;1.47;;;14.10;1.00;;;;;;5077532;28;20570;-80
2023/01/01 10:59:39;;;;;;;3.27;1.33;;;14.00;1.00;;;;;;5078899;28;20261;-80
2023/01/01 11:02:25;;;;;;;8.27;1.70;;;14.00;1.00;;;;;;5079329;28;20238;-80
2023/01/01 11:04:55;;;;;;;2.80;1.07;;;14.00;1.00;;;;;;5077516;28;20179;-80
2023/01/01 11:07:28;;;;;;;6.37;1.73;;;14.10;1.00;;;;;;5078880;28;20174;-80
2023/01/01 11:10:00;;;;;;;6.13;1.70;;;14.10;1.00;;;;;;5077913;28;20186;-79
2023/01/01 11:12:33;;;;;;;5.37;1.50;;;14.10;1.00;;;;;;5078625;28;20183;-80
2023/01/01 11:14:59;;;;;;;5.03;1.63;;;14.10;1.00;;;;;;5078691;28;20159;-79
2023/01/01 11:17:28;;;;;;;5.47;1.70;;;14.20;1.00;;;;;;5078960;28;20693;-80
2023/01/01 11:19:56;;;;;;;7.57;1.90;;;14.20;1.00;;;;;;5097003;22;20592;-78
2023/01/01 11:22:47;;;;;;;2.97;1.53;;;14.20;1.00;;;;;;5076212;28;20167;-79
2023/01/01 11:25:19;;;;;;;4.97;1.60;;;14.20;1.00;;;;;;5076357;28;20216;-78
2023/01/01 11:27:46;;;;;;;3.90;1.57;;;14.20;1.00;;;;;;5076374;28;20166;-79
2023/01/01 11:30:23;;;;;;;3.23;1.40;;;14.20;1.00;;;;;;5058472;28;20206;-79
2023/01/01 11:32:52;;;;;;;4.53;1.37;;;14.20;1.00;;;;;;5058008;28;20636;-79
2023/01/01 11:35:22;;;;;;;6.17;1.47;;;14.20;1.00;;;;;;5076528;28;20167;-77
2023/01/01 11:37:49;;;;;;;5.10;2.20;;;14.20;1.00;;;;;;5076739;28;20167;-79
2023/01/01 11:40:21;;;;;;;9.07;2.10;;;14.20;1.00;;;;;;5076565;28;20196;-79
2023/01/01 11:42:57;;;;;;;4.87;1.60;;;14.20;1.00;;;;;;5076029;28;20630;-78
2023/01/01 11:45:26;;;;;;;6.90;1.60;;;14.20;1.00;;;;;;5076354;28;20201;-79
2023/01/01 11:47:58;;;;;;;3.90;1.70;;;14.20;1.00;;;;;;5057947;28;20671;-77
2023/01/01 11:50:39;;;;;;;4.60;1.67;;;14.20;1.00;;;;;;5075847;28;20750;-79
2023/01/01 11:53:16;;;;;;;6.43;2.40;;;14.20;1.00;;;;;;5075919;28;20602;-79
2023/01/01 11:55:46;;;;;;;5.90;2.00;;;14.20;1.00;;;;;;5057672;28;20215;-78
2023/01/01 11:58:28;;;;;;;5.80;2.10;;;14.20;1.00;;;;;;5063908;28;20210;-76
2023/01/01 12:00:58;;;;;;;6.27;1.57;;;14.30;1.00;;;;;;5078921;28;20250;-78
2023/01/01 12:03:36;;;;;;;4.17;1.27;;;14.30;1.00;;;;;;5077397;28;20258;-80
2023/01/01 12:06:31;;;;;;;6.67;2.27;;;14.30;1.00;;;;;;5057582;28;20597;-77
2023/01/01 12:09:28;;;;;;;4.30;1.97;;;14.20;1.00;;;;;;5060860;28;20202;-76
2023/01/01 12:12:41;;;;;;;5.87;1.80;;;14.20;1.00;;;;;;5057370;28;20663;-78
2023/01/01 12:15:24;;;;;;;6.23;1.80;;;14.20;1.00;;;;;;4975989;28;20179;-79
2023/01/01 12:18:19;;;;;;;7.60;1.53;;;14.20;1.00;;;;;;4975162;28;20222;-81
2023/01/01 12:21:07;;;;;;;7.37;1.50;;;14.20;1.00;;;;;;5059075;28;20226;-80
2023/01/01 12:23:34;;;;;;;4.03;1.60;;;14.30;1.00;;;;;;5057898;28;20316;-80
2023/01/01 12:26:24;;;;;;;10.73;1.70;;;14.20;1.00;;;;;;5075582;28;20664;-79
2023/01/01 12:29:08;;;;;;;5.43;1.70;;;14.20;1.00;;;;;;5058157;28;20212;-80
2023/01/01 12:32:11;;;;;;;7.83;1.80;;;14.20;1.00;;;;;;5075712;28;20252;-80
2023/01/01 12:34:40;;;;;;;5.93;1.43;;;14.20;1.00;;;;;;5058176;28;20175;-80
2023/01/01 12:37:05;;;;;;;6.83;1.70;;;14.20;1.00;;;;;;5057278;28;20185;-79
2023/01/01 12:40:11;;;;;;;5.73;2.00;;;14.20;1.00;;;;;;5057520;28;20278;-80
2023/01/01 12:42:50;;;;;;;7.47;2.00;;;14.30;1.00;;;;;;5075737;28;20163;-79
2023/01/01 12:45:37;;;;;;;9.43;1.50;;;14.20;1.00;;;;;;5058080;28;20696;-79
2023/01/01 12:48:21;;;;;;;5.23;1.50;;;14.20;1.00;;;;;;5075312;28;20166;-80
2023/01/01 12:50:56;;;;;;;4.80;1.30;;;14.20;1.00;;;;;;5056838;28;20199;-79
2023/01/01 12:53:37;;;;;;;6.77;1.77;;;14.20;1.00;;;;;;5056993;28;20174;-79
2023/01/01 12:56:09;;;;;;;9.87;1.30;;;14.20;1.00;;;;;;5056726;28;20162;-79
2023/01/01 12:58:50;;;;;;;7.90;1.90;;;14.20;1.00;;;;;;5075317;28;20156;-79
2023/01/01 13:01:23;;;;;;;5.73;1.60;;;14.10;1.00;;;;;;5056380;28;20286;-79
2023/01/01 13:04:03;;;;;;;4.40;1.50;;;14.10;1.00;;;;;;5074485;28;20148;-79
2023/01/01 13:06:50;;;;;;;5.97;1.70;;;14.10;1.00;;;;;;5056569;28;20542;-79
2023/01/01 13:09:21;;;;;;;5.17;1.73;;;14.10;1.00;;;;;;5056402;28;20648;-79